Time;durP1;ratioP1;P1;durP2;ratioP2;P2;SDS_P1;SDS_P2;PMS_P1;PMS_P2;Temp;Humidity;BMP_temperature;BMP_pressure;BME280_temperature;BME280_humidity;BME280_pressure;Samples;Min_cycle;Max_cycle;Signal;HPM_P1;HPM_P2
2022/02/12 00:00:20;;;;;;;3.30;1.80;;;6.50;77.50;;;;;;1903468;75;21081;-45
2022/02/12 00:02:52;;;;;;;2.40;2.00;;;6.50;77.40;;;;;;1903494;75;21449;-45
2022/02/12 00:05:24;;;;;;;2.95;2.20;;;6.50;77.50;;;;;;1903462;75;21077;-46
2022/02/12 00:07:53;;;;;;;3.62;1.82;;;6.50;77.30;;;;;;1903450;75;21472;-46
2022/02/12 00:10:23;;;;;;;4.62;2.40;;;6.50;77.20;;;;;;1903339;75;21284;-46
2022/02/12 00:12:52;;;;;;;3.20;2.05;;;6.50;77.30;;;;;;1903324;75;21089;-46
2022/02/12 00:15:22;;;;;;;2.65;1.95;;;6.50;77.10;;;;;;1903421;75;21035;-44
2022/02/12 00:17:52;;;;;;;3.60;1.98;;;6.50;77.40;;;;;;1903425;75;21027;-45
2022/02/12 00:20:21;;;;;;;4.62;2.33;;;6.50;77.70;;;;;;1903463;75;21007;-47
2022/02/12 00:22:50;;;;;;;4.92;2.25;;;6.50;77.80;;;;;;1903514;75;21031;-45
2022/02/12 00:25:19;;;;;;;2.67;2.10;;;6.50;77.60;;;;;;1903553;75;21101;-45
2022/02/12 00:27:49;;;;;;;3.08;2.12;;;6.50;77.60;;;;;;1903445;75;21059;-45
2022/02/12 00:30:18;;;;;;;2.42;2.22;;;6.60;77.70;;;;;;1903439;75;21164;-46
2022/02/12 00:32:47;;;;;;;3.35;2.20;;;6.50;77.70;;;;;;1903438;75;21035;-46
2022/02/12 00:35:17;;;;;;;2.92;2.22;;;6.50;77.60;;;;;;1903517;75;21011;-45
2022/02/12 00:37:47;;;;;;;3.22;2.08;;;6.60;77.70;;;;;;1903489;75;21039;-45
2022/02/12 00:40:16;;;;;;;2.10;1.87;;;6.60;77.80;;;;;;1903441;75;21007;-45
2022/02/12 00:42:46;;;;;;;3.37;2.02;;;6.60;77.70;;;;;;1903668;75;21031;-45
2022/02/12 00:45:15;;;;;;;2.10;1.85;;;6.60;77.70;;;;;;1903416;75;21027;-46
2022/02/12 00:47:45;;;;;;;2.25;1.92;;;6.60;77.80;;;;;;1903463;75;21085;-46
2022/02/12 00:50:14;;;;;;;5.35;2.58;;;6.60;77.80;;;;;;1903626;75;21027;-45
2022/02/12 00:52:43;;;;;;;4.28;2.22;;;6.70;77.90;;;;;;1903698;75;21043;-46
2022/02/12 00:55:13;;;;;;;2.25;1.80;;;6.60;77.70;;;;;;1903626;75;21081;-45
2022/02/12 00:57:42;;;;;;;6.53;2.12;;;6.70;77.80;;;;;;1903584;75;21027;-45
2022/02/12 01:00:12;;;;;;;2.85;1.87;;;6.70;77.90;;;;;;1903647;75;21494;-46
2022/02/12 01:02:42;;;;;;;2.10;1.72;;;6.70;77.80;;;;;;1903484;75;21093;-46
2022/02/12 01:05:11;;;;;;;3.42;2.30;;;6.70;77.80;;;;;;1903448;75;21109;-45
2022/02/12 01:07:41;;;;;;;4.40;2.58;;;6.80;78.00;;;;;;1903490;75;21101;-45
2022/02/12 01:10:11;;;;;;;2.70;2.15;;;6.70;77.90;;;;;;1903446;75;21026;-46
2022/02/12 01:12:40;;;;;;;3.35;2.10;;;6.70;78.10;;;;;;1903472;75;21086;-46
2022/02/12 01:15:10;;;;;;;2.40;1.90;;;6.80;78.00;;;;;;1903417;75;21089;-45
2022/02/12 01:17:39;;;;;;;2.83;2.10;;;6.80;77.90;;;;;;1903525;75;21093;-45
2022/02/12 01:20:09;;;;;;;5.75;1.95;;;6.80;77.80;;;;;;1903444;75;21022;-46
2022/02/12 01:22:38;;;;;;;2.47;1.80;;;6.80;77.70;;;;;;1903565;75;21030;-45
2022/02/12 01:25:09;;;;;;;4.17;2.25;;;6.80;77.70;;;;;;1903431;75;21023;-46
2022/02/12 01:27:38;;;;;;;3.98;2.08;;;6.80;77.70;;;;;;1903504;75;21008;-45
2022/02/12 01:30:09;;;;;;;4.17;2.22;;;6.80;77.70;;;;;;1903517;75;21031;-45
2022/02/12 01:32:39;;;;;;;3.77;2.60;;;6.80;77.70;;;;;;1902893;75;21031;-45
2022/02/12 01:35:10;;;;;;;4.12;2.10;;;6.80;77.90;;;;;;1898427;75;21023;-46
2022/02/12 01:37:40;;;;;;;2.22;2.02;;;6.80;77.70;;;;;;1898428;75;20999;-45
2022/02/12 01:40:10;;;;;;;3.30;2.05;;;6.80;77.80;;;;;;1898474;75;21097;-45
2022/02/12 01:42:40;;;;;;;4.28;1.87;;;6.80;77.90;;;;;;1898565;75;21093;-45
2022/02/12 01:45:09;;;;;;;3.65;2.12;;;6.80;77.90;;;;;;1898533;75;21027;-46
2022/02/12 01:47:38;;;;;;;3.30;2.02;;;6.80;77.90;;;;;;1898532;75;21023;-45
2022/02/12 01:50:09;;;;;;;3.37;2.05;;;6.80;77.80;;;;;;1898522;75;21036;-44
2022/02/12 01:52:39;;;;;;;5.15;2.98;;;6.80;77.80;;;;;;1898475;75;21071;-47
2022/02/12 01:55:09;;;;;;;3.10;2.30;;;6.80;77.80;;;;;;1898498;75;21028;-45
2022/02/12 01:57:38;;;;;;;3.85;2.42;;;6.80;77.80;;;;;;1898549;75;21101;-45
2022/02/12 02:00:10;;;;;;;3.58;2.00;;;6.80;77.70;;;;;;1898657;75;21019;-45
2022/02/12 02:02:41;;;;;;;5.87;2.37;;;6.70;77.70;;;;;;1898682;75;21407;-45
2022/02/12 02:05:12;;;;;;;3.17;1.95;;;6.80;77.80;;;;;;1898420;75;21118;-45
2022/02/12 02:07:43;;;;;;;2.42;1.87;;;6.80;77.90;;;;;;1898405;75;21032;-45
2022/02/12 02:10:14;;;;;;;3.83;2.12;;;6.80;78.00;;;;;;1898516;75;21089;-44
2022/02/12 02:12:43;;;;;;;4.10;2.40;;;6.80;78.10;;;;;;1898552;75;21035;-45
2022/02/12 02:15:13;;;;;;;4.70;2.50;;;6.80;78.00;;;;;;1898401;75;21100;-46
2022/02/12 02:17:42;;;;;;;3.08;1.92;;;6.80;78.00;;;;;;1898523;75;21129;-45
2022/02/12 02:20:12;;;;;;;3.85;2.02;;;6.80;78.00;;;;;;1898383;75;21031;-45
2022/02/12 02:22:51;;;;;;;4.83;2.72;;;6.80;78.00;;;;;;1898422;75;21027;-45
2022/02/12 02:25:21;;;;;;;3.67;2.22;;;6.80;78.10;;;;;;1898487;75;21004;-45
2022/02/12 02:27:51;;;;;;;2.92;2.00;;;6.80;78.20;;;;;;1898465;75;21031;-48
2022/02/12 02:30:22;;;;;;;3.77;2.20;;;6.80;78.20;;;;;;1898438;75;21125;-47
2022/02/12 02:32:51;;;;;;;4.00;2.12;;;6.80;78.30;;;;;;1898460;75;21031;-48
2022/02/12 02:35:22;;;;;;;2.47;1.95;;;6.80;78.20;;;;;;1903183;75;21117;-47
2022/02/12 02:37:52;;;;;;;4.70;2.52;;;6.90;78.30;;;;;;1903574;75;21054;-48
2022/02/12 02:40:24;;;;;;;2.80;2.02;;;6.90;78.30;;;;;;1903344;75;21043;-47
2022/02/12 02:42:54;;;;;;;3.22;2.12;;;6.80;78.20;;;;;;1903750;75;21424;-48
2022/02/12 02:45:24;;;;;;;4.70;2.50;;;6.90;78.30;;;;;;1903377;75;21023;-45
2022/02/12 02:48:00;;;;;;;4.45;2.40;;;6.90;78.30;;;;;;1903511;75;21031;-47
2022/02/12 02:56:12;;;;;;;3.15;2.35;;;6.80;78.40;;;;;;1903537;75;21011;-46
2022/02/12 02:58:42;;;;;;;3.95;2.10;;;6.80;78.60;;;;;;1903608;75;21113;-47
2022/02/12 03:01:20;;;;;;;3.55;2.70;;;6.80;78.40;;;;;;1903385;75;21023;-46
2022/02/12 03:03:52;;;;;;;3.65;2.42;;;6.80;78.50;;;;;;1903508;75;21042;-47
2022/02/12 03:06:29;;;;;;;4.00;2.98;;;6.90;78.60;;;;;;1903510;75;21085;-48
2022/02/12 03:08:56;;;;;;;3.92;2.55;;;6.80;78.60;;;;;;1902460;75;21117;-46
2022/02/12 03:11:26;;;;;;;5.35;2.22;;;6.90;78.70;;;;;;1903557;75;21132;-45
2022/02/12 03:13:56;;;;;;;5.97;2.45;;;6.80;78.80;;;;;;1903333;75;21030;-46
2022/02/12 03:16:25;;;;;;;2.27;2.08;;;6.80;78.90;;;;;;1903398;75;21007;-46
2022/02/12 03:18:54;;;;;;;3.50;2.72;;;6.80;78.90;;;;;;1903347;75;21114;-46
2022/02/12 03:21:24;;;;;;;4.20;2.80;;;6.80;78.90;;;;;;1903390;75;21007;-46
2022/02/12 03:23:53;;;;;;;4.40;3.15;;;6.90;78.90;;;;;;1903371;75;21031;-46
2022/02/12 03:26:23;;;;;;;7.58;4.17;;;6.90;79.00;;;;;;1903462;75;21007;-46
2022/02/12 03:28:52;;;;;;;5.42;3.62;;;6.90;79.10;;;;;;1903337;75;21031;-46
2022/02/12 03:31:21;;;;;;;5.90;3.92;;;6.80;79.10;;;;;;1903353;75;21027;-46
2022/02/12 03:33:51;;;;;;;5.20;3.15;;;6.90;79.10;;;;;;1902950;75;21105;-46
2022/02/12 03:36:21;;;;;;;4.50;2.60;;;6.80;79.10;;;;;;1898480;75;21024;-46
2022/02/12 03:38:50;;;;;;;4.55;3.42;;;6.90;79.30;;;;;;1898557;75;21027;-46
2022/02/12 03:41:19;;;;;;;6.65;3.70;;;6.90;79.10;;;;;;1898464;75;21055;-46
2022/02/12 03:43:49;;;;;;;5.85;3.10;;;6.90;79.30;;;;;;1898475;75;21047;-46
2022/02/12 03:46:18;;;;;;;6.03;3.22;;;6.90;79.10;;;;;;1898447;75;20999;-46
2022/02/12 03:48:48;;;;;;;9.03;4.80;;;7.00;79.20;;;;;;1898411;75;21023;-46
2022/02/12 03:51:18;;;;;;;12.43;4.08;;;7.00;79.30;;;;;;1898294;75;21003;-46
2022/02/12 03:53:49;;;;;;;6.28;3.92;;;6.90;79.20;;;;;;1898507;75;21007;-47
2022/02/12 03:56:18;;;;;;;3.92;2.77;;;7.00;79.60;;;;;;1898550;75;21038;-47
2022/02/12 03:58:48;;;;;;;8.68;3.98;;;6.90;79.50;;;;;;1898571;75;21069;-45
2022/02/12 04:01:17;;;;;;;6.67;2.98;;;6.90;79.40;;;;;;1898461;75;21031;-46
2022/02/12 04:03:47;;;;;;;3.50;2.52;;;6.90;79.40;;;;;;1898398;75;21071;-46
2022/02/12 04:06:17;;;;;;;9.53;3.92;;;6.90;79.40;;;;;;1898621;75;21093;-46
2022/02/12 04:08:46;;;;;;;6.97;2.80;;;7.00;79.50;;;;;;1898471;75;21039;-47
2022/02/12 04:11:17;;;;;;;6.35;3.30;;;7.00;79.40;;;;;;1898414;75;21327;-46
2022/02/12 04:13:47;;;;;;;8.25;2.65;;;7.00;79.40;;;;;;1898583;75;21119;-46
2022/02/12 04:16:16;;;;;;;4.80;3.75;;;7.10;79.50;;;;;;1898394;75;21132;-47
2022/02/12 04:18:45;;;;;;;6.67;3.60;;;7.10;79.40;;;;;;1898549;75;21097;-46
2022/02/12 04:21:14;;;;;;;8.10;5.08;;;7.10;79.30;;;;;;1898419;75;21109;-46
2022/02/12 04:23:44;;;;;;;8.23;5.45;;;7.20;79.30;;;;;;1898476;75;21003;-46
2022/02/12 04:26:13;;;;;;;4.90;3.15;;;7.20;79.40;;;;;;1898453;75;21113;-46
2022/02/12 04:28:42;;;;;;;9.10;3.67;;;7.20;79.40;;;;;;1898367;75;21031;-47
2022/02/12 04:31:12;;;;;;;6.28;3.15;;;7.20;79.50;;;;;;1898521;75;21524;-46
2022/02/12 04:33:41;;;;;;;7.22;3.55;;;7.20;79.40;;;;;;1898439;75;21093;-47
2022/02/12 04:36:10;;;;;;;4.85;2.92;;;7.20;79.50;;;;;;1902190;75;21119;-46
2022/02/12 04:38:40;;;;;;;7.87;3.35;;;7.20;79.50;;;;;;1903469;75;21089;-51
2022/02/12 04:41:09;;;;;;;9.35;3.70;;;7.30;79.40;;;;;;1903544;75;21105;-47
2022/02/12 04:43:39;;;;;;;4.28;3.10;;;7.30;79.50;;;;;;1903531;75;21035;-48
2022/02/12 04:46:08;;;;;;;4.75;2.70;;;7.30;79.60;;;;;;1903567;75;21055;-47
2022/02/12 04:48:38;;;;;;;7.70;3.62;;;7.30;79.60;;;;;;1903512;75;21098;-48
2022/02/12 04:51:07;;;;;;;9.90;4.58;;;7.30;79.80;;;;;;1903510;75;21007;-48
2022/02/12 04:53:36;;;;;;;7.17;3.62;;;7.40;79.80;;;;;;1903499;75;21571;-47
2022/02/12 04:56:07;;;;;;;5.97;3.50;;;7.40;79.70;;;;;;1903447;75;21108;-48
2022/02/12 04:58:36;;;;;;;6.87;3.30;;;7.40;80.10;;;;;;1903499;75;21031;-47
2022/02/12 05:01:06;;;;;;;6.15;3.20;;;7.40;79.80;;;;;;1903611;75;21087;-48
2022/02/12 05:03:35;;;;;;;7.30;3.50;;;7.40;80.10;;;;;;1903434;75;21092;-48
2022/02/12 05:06:05;;;;;;;4.87;3.33;;;7.40;80.00;;;;;;1903487;75;21097;-48
2022/02/12 05:08:34;;;;;;;5.35;3.40;;;7.50;80.10;;;;;;1903399;75;21043;-49
2022/02/12 05:11:04;;;;;;;5.60;3.65;;;7.50;80.00;;;;;;1903380;75;21094;-47
2022/02/12 05:13:33;;;;;;;9.98;5.12;;;7.50;79.90;;;;;;1903416;75;21101;-49
2022/02/12 05:16:02;;;;;;;6.80;3.75;;;7.50;79.90;;;;;;1903506;75;21108;-47
2022/02/12 05:18:32;;;;;;;4.75;3.58;;;7.50;79.80;;;;;;1903529;75;21101;-47
2022/02/12 05:21:01;;;;;;;6.70;3.25;;;7.50;79.70;;;;;;1903431;75;21051;-45
2022/02/12 05:23:31;;;;;;;6.35;3.60;;;7.60;79.90;;;;;;1903493;75;21011;-45
2022/02/12 05:26:00;;;;;;;6.87;3.83;;;7.60;79.90;;;;;;1903678;75;21027;-45
2022/02/12 05:28:30;;;;;;;10.63;4.75;;;7.60;79.80;;;;;;1903446;75;21031;-46
2022/02/12 05:30:59;;;;;;;9.78;4.08;;;7.60;79.80;;;;;;1903439;75;21039;-46
2022/02/12 05:33:28;;;;;;;10.90;3.75;;;7.70;79.80;;;;;;1903450;75;21031;-49
2022/02/12 05:35:58;;;;;;;9.73;3.90;;;7.70;79.90;;;;;;1901451;75;21078;-45
2022/02/12 05:38:27;;;;;;;8.50;3.67;;;7.70;79.90;;;;;;1898501;75;21024;-44
2022/02/12 05:40:57;;;;;;;6.87;3.37;;;7.70;79.70;;;;;;1898530;75;21132;-45
2022/02/12 05:43:26;;;;;;;6.95;3.35;;;7.80;79.70;;;;;;1898413;75;21136;-46
2022/02/12 05:45:55;;;;;;;8.95;3.52;;;7.80;79.60;;;;;;1898514;75;21019;-45
2022/02/12 05:48:24;;;;;;;6.03;3.75;;;7.80;79.50;;;;;;1898427;75;21094;-46
2022/02/12 05:50:54;;;;;;;7.17;3.60;;;7.90;79.40;;;;;;1898484;75;21027;-46
2022/02/12 05:53:24;;;;;;;6.95;4.10;;;7.90;79.40;;;;;;1898373;75;20999;-48
2022/02/12 05:55:53;;;;;;;9.80;4.05;;;8.00;79.30;;;;;;1898433;75;21027;-49
2022/02/12 05:58:23;;;;;;;8.15;3.72;;;8.00;79.20;;;;;;1898436;75;21097;-46
2022/02/12 06:00:52;;;;;;;5.90;3.58;;;8.00;79.10;;;;;;1898328;75;21019;-45
2022/02/12 06:03:21;;;;;;;7.08;3.67;;;8.10;79.20;;;;;;1898353;75;21093;-50
2022/02/12 06:05:51;;;;;;;5.10;3.62;;;8.10;79.10;;;;;;1898488;75;21391;-47
2022/02/12 06:08:20;;;;;;;7.78;3.40;;;8.20;79.00;;;;;;1898487;75;21019;-49
2022/02/12 06:10:53;;;;;;;14.23;4.15;;;8.20;79.00;;;;;;1898407;75;21023;-49
2022/02/12 06:13:22;;;;;;;9.05;4.10;;;8.20;79.00;;;;;;1898515;75;21089;-47
2022/02/12 06:15:51;;;;;;;4.83;3.17;;;8.30;78.90;;;;;;1898323;75;21097;-48
2022/02/12 06:18:21;;;;;;;8.18;3.70;;;8.30;78.60;;;;;;1898376;75;21027;-46
2022/02/12 06:20:50;;;;;;;5.75;3.00;;;8.40;78.50;;;;;;1898393;75;21097;-45
2022/02/12 06:23:20;;;;;;;6.42;3.27;;;8.40;78.20;;;;;;1898329;75;21133;-48
2022/02/12 06:25:49;;;;;;;8.60;3.83;;;8.40;78.10;;;;;;1898454;75;21035;-45
2022/02/12 06:28:19;;;;;;;7.40;3.50;;;8.40;78.10;;;;;;1898355;75;21039;-47
2022/02/12 06:30:49;;;;;;;7.60;3.20;;;8.50;78.20;;;;;;1898345;75;21051;-46
2022/02/12 06:33:18;;;;;;;7.08;3.50;;;8.50;78.30;;;;;;1898346;75;21027;-46
2022/02/12 06:35:48;;;;;;;6.40;3.45;;;8.60;78.20;;;;;;1898387;75;21015;-45
2022/02/12 06:38:17;;;;;;;10.32;4.97;;;8.60;78.20;;;;;;1898485;75;21063;-47
2022/02/12 06:40:47;;;;;;;7.25;3.75;;;8.70;78.20;;;;;;1898549;75;21133;-46
2022/02/12 06:43:16;;;;;;;5.75;3.58;;;8.70;77.70;;;;;;1898473;75;21140;-46
2022/02/12 06:45:46;;;;;;;7.67;3.70;;;8.70;77.60;;;;;;1898591;75;21035;-46
2022/02/12 06:48:15;;;;;;;5.50;3.77;;;8.70;77.50;;;;;;1898440;75;21023;-46
2022/02/12 06:50:45;;;;;;;9.08;3.77;;;8.70;77.30;;;;;;1898518;75;21089;-47
2022/02/12 06:53:14;;;;;;;3.67;2.50;;;8.70;77.20;;;;;;1898476;75;21027;-47
2022/02/12 06:55:44;;;;;;;4.53;3.15;;;8.70;76.70;;;;;;1898444;75;21138;-46
2022/02/12 06:58:13;;;;;;;5.40;3.37;;;8.60;76.70;;;;;;1898477;75;20999;-45
2022/02/12 07:00:42;;;;;;;8.93;2.77;;;8.70;77.00;;;;;;1898392;75;21015;-46
2022/02/12 07:03:12;;;;;;;7.00;3.30;;;8.70;76.90;;;;;;1898582;75;21031;-47
2022/02/12 07:05:41;;;;;;;7.60;3.45;;;8.70;76.60;;;;;;1898484;75;21035;-46
2022/02/12 07:08:11;;;;;;;4.17;2.87;;;8.70;76.80;;;;;;1898607;75;21031;-48
2022/02/12 07:10:40;;;;;;;26.48;5.47;;;8.70;76.70;;;;;;1898477;75;21039;-46
2022/02/12 07:13:11;;;;;;;5.97;3.77;;;8.70;76.50;;;;;;1898337;75;20999;-46
2022/02/12 07:15:41;;;;;;;5.20;3.30;;;8.70;76.20;;;;;;1898458;75;21091;-46
2022/02/12 07:18:12;;;;;;;5.80;3.17;;;8.70;76.00;;;;;;1898412;75;21027;-46
2022/02/12 07:20:41;;;;;;;6.92;3.40;;;8.70;76.10;;;;;;1898592;75;21039;-46
2022/02/12 07:23:11;;;;;;;6.33;2.47;;;8.80;75.90;;;;;;1898499;75;21027;-48
2022/02/12 07:25:40;;;;;;;5.75;3.65;;;8.90;75.90;;;;;;1898358;75;21019;-46
2022/02/12 07:28:10;;;;;;;7.42;3.17;;;9.00;76.00;;;;;;1898461;75;21114;-45
2022/02/12 07:30:41;;;;;;;4.65;3.10;;;9.00;76.50;;;;;;1898370;75;21031;-46
2022/02/12 07:33:10;;;;;;;3.52;2.47;;;9.10;76.10;;;;;;1898460;75;21039;-46
2022/02/12 07:35:39;;;;;;;5.92;2.85;;;9.10;75.50;;;;;;1898583;75;21074;-46
2022/02/12 07:38:09;;;;;;;5.12;3.25;;;9.20;75.30;;;;;;1898499;75;21124;-46
2022/02/12 07:40:39;;;;;;;9.18;4.50;;;9.20;75.40;;;;;;1898347;75;21120;-45
2022/02/12 07:43:08;;;;;;;8.95;3.72;;;9.20;75.60;;;;;;1898486;75;21027;-46
2022/02/12 07:45:38;;;;;;;3.37;2.45;;;9.30;75.50;;;;;;1898527;75;21015;-47
2022/02/12 07:48:07;;;;;;;5.00;3.20;;;9.30;75.00;;;;;;1898463;75;21066;-46
2022/02/12 07:50:36;;;;;;;4.35;3.08;;;9.30;74.50;;;;;;1898461;75;21086;-46
2022/02/12 07:53:06;;;;;;;8.48;3.58;;;9.30;74.50;;;;;;1898412;75;21031;-46
2022/02/12 07:55:35;;;;;;;8.50;4.20;;;9.30;75.00;;;;;;1898521;75;21024;-46
2022/02/12 07:58:05;;;;;;;23.42;3.92;;;9.40;74.90;;;;;;1898519;75;21004;-47
2022/02/12 08:00:34;;;;;;;3.40;2.58;;;9.50;74.70;;;;;;1898420;75;21063;-46
2022/02/12 08:03:04;;;;;;;10.82;3.17;;;9.50;73.70;;;;;;1898472;75;21015;-48
2022/02/12 08:05:33;;;;;;;12.53;4.20;;;9.60;74.20;;;;;;1898381;75;21039;-45
2022/02/12 08:08:06;;;;;;;7.62;3.90;;;9.60;74.10;;;;;;1898426;75;21031;-45
2022/02/12 08:13:23;;;;;;;3.75;2.65;;;9.70;74.00;;;;;;1898531;75;21094;-46
2022/02/12 08:15:52;;;;;;;6.87;3.42;;;9.80;73.40;;;;;;1898475;75;21035;-46
2022/02/12 08:18:21;;;;;;;7.00;3.15;;;9.90;73.00;;;;;;1898508;75;21031;-46
2022/02/12 08:20:51;;;;;;;8.78;2.98;;;9.90;72.90;;;;;;1898428;75;21031;-45
2022/02/12 08:23:20;;;;;;;10.60;3.72;;;10.00;72.30;;;;;;1898383;75;21011;-46
2022/02/12 08:25:49;;;;;;;8.58;3.05;;;10.00;72.50;;;;;;1898450;75;21083;-46
2022/02/12 08:28:19;;;;;;;8.03;3.12;;;10.10;71.60;;;;;;1898377;75;21027;-46
2022/02/12 08:30:48;;;;;;;7.58;3.12;;;10.10;72.10;;;;;;1898341;75;21090;-47
2022/02/12 08:33:18;;;;;;;11.33;3.22;;;10.10;71.80;;;;;;1898452;75;21130;-48
2022/02/12 08:35:47;;;;;;;6.28;3.37;;;10.10;71.80;;;;;;1898557;75;21068;-46
2022/02/12 08:38:17;;;;;;;6.10;3.40;;;10.10;72.00;;;;;;1898355;75;21047;-46
2022/02/12 08:40:46;;;;;;;15.18;3.05;;;10.10;72.30;;;;;;1898415;75;21090;-46
2022/02/12 08:43:16;;;;;;;18.90;8.75;;;10.10;72.70;;;;;;1898401;75;21015;-46
2022/02/12 08:45:45;;;;;;;6.42;3.35;;;10.10;72.90;;;;;;1898392;75;21089;-45
2022/02/12 08:48:15;;;;;;;15.43;3.85;;;10.10;72.70;;;;;;1898437;75;21027;-46
2022/02/12 08:50:44;;;;;;;4.30;3.12;;;10.10;73.00;;;;;;1898359;75;21019;-46
2022/02/12 08:53:13;;;;;;;3.02;2.42;;;10.10;72.80;;;;;;1898491;75;21039;-47
2022/02/12 08:55:42;;;;;;;4.92;3.47;;;10.20;71.60;;;;;;1898508;75;21012;-46
2022/02/12 08:58:12;;;;;;;4.87;2.98;;;10.10;72.20;;;;;;1898504;75;21031;-47
2022/02/12 09:00:41;;;;;;;5.65;3.50;;;10.10;72.00;;;;;;1898526;75;21027;-46
2022/02/12 09:03:11;;;;;;;17.23;3.17;;;10.10;72.00;;;;;;1898584;75;21027;-46
2022/02/12 09:05:40;;;;;;;11.68;3.35;;;10.10;72.20;;;;;;1898639;75;21427;-46
2022/02/12 09:08:10;;;;;;;8.10;3.22;;;10.10;72.40;;;;;;1898472;75;21142;-46
2022/02/12 09:10:40;;;;;;;8.98;2.98;;;10.10;72.60;;;;;;1898466;75;21023;-47
2022/02/12 09:13:10;;;;;;;4.20;2.70;;;10.10;73.10;;;;;;1898436;75;21044;-47
2022/02/12 09:15:39;;;;;;;5.83;3.55;;;10.10;71.70;;;;;;1898494;75;21027;-47
2022/02/12 09:18:09;;;;;;;3.67;2.98;;;10.10;72.10;;;;;;1898375;75;21027;-48
2022/02/12 09:20:38;;;;;;;6.30;3.17;;;10.20;71.50;;;;;;1898359;75;21082;-46
2022/02/12 09:23:08;;;;;;;7.00;3.20;;;10.10;71.10;;;;;;1898474;75;21168;-46
2022/02/12 09:25:37;;;;;;;4.80;2.40;;;10.20;71.00;;;;;;1898491;75;21019;-48
2022/02/12 09:28:07;;;;;;;6.50;3.42;;;10.20;70.80;;;;;;1898433;75;21027;-46
2022/02/12 09:30:38;;;;;;;6.55;3.58;;;10.20;70.60;;;;;;1898422;75;21067;-46
2022/02/12 09:33:07;;;;;;;7.10;2.77;;;10.20;70.40;;;;;;1898420;75;21028;-45
2022/02/12 09:35:36;;;;;;;6.40;2.90;;;10.30;70.60;;;;;;1898550;75;21050;-46
2022/02/12 09:38:06;;;;;;;5.37;2.90;;;10.40;70.50;;;;;;1898502;75;21474;-47
2022/02/12 09:40:36;;;;;;;6.03;3.22;;;10.50;70.10;;;;;;1898425;75;21032;-46
2022/02/12 09:43:06;;;;;;;7.78;2.80;;;10.50;70.40;;;;;;1898555;75;21028;-46
2022/02/12 09:45:38;;;;;;;8.48;4.00;;;10.60;69.90;;;;;;1898418;75;21023;-47
2022/02/12 09:48:10;;;;;;;4.78;3.20;;;10.60;70.40;;;;;;1897844;75;21106;-46
2022/02/12 09:50:40;;;;;;;10.93;3.20;;;10.70;70.50;;;;;;1898323;75;21027;-46
2022/02/12 09:53:10;;;;;;;4.05;2.37;;;10.80;69.80;;;;;;1898419;75;21035;-46
2022/02/12 09:55:39;;;;;;;6.30;3.12;;;10.90;68.60;;;;;;1898501;75;21031;-46
2022/02/12 09:58:10;;;;;;;4.55;2.85;;;10.90;68.80;;;;;;1898358;75;21152;-46
2022/02/12 10:00:39;;;;;;;8.50;3.92;;;11.00;69.10;;;;;;1898662;75;21020;-46
2022/02/12 10:03:08;;;;;;;5.55;3.02;;;11.00;69.00;;;;;;1898382;75;21071;-46
2022/02/12 10:05:42;;;;;;;6.05;3.42;;;11.00;68.20;;;;;;1898580;75;21145;-45
2022/02/12 10:08:15;;;;;;;7.92;3.52;;;10.90;68.70;;;;;;1898434;75;21478;-47
2022/02/12 10:10:45;;;;;;;9.80;2.90;;;10.90;69.40;;;;;;1898398;75;21051;-46
2022/02/12 10:13:18;;;;;;;7.05;3.40;;;11.00;68.80;;;;;;1898366;75;21027;-47
2022/02/12 10:15:55;;;;;;;4.85;3.25;;;11.00;68.90;;;;;;1898465;75;21031;-47
2022/02/12 10:18:26;;;;;;;6.65;3.22;;;11.00;68.80;;;;;;1897964;75;21454;-46
2022/02/12 10:20:57;;;;;;;6.80;3.08;;;10.90;68.90;;;;;;1898630;75;21070;-46
2022/02/12 10:23:29;;;;;;;12.13;3.22;;;10.90;69.20;;;;;;1898374;75;21027;-48
2022/02/12 10:26:07;;;;;;;11.30;3.47;;;10.90;68.80;;;;;;1898531;75;21082;-46
2022/02/12 10:28:38;;;;;;;7.85;3.60;;;10.90;69.00;;;;;;1898400;75;21003;-46
2022/02/12 10:31:08;;;;;;;10.70;3.30;;;10.90;69.30;;;;;;1898360;75;21062;-46
2022/02/12 10:33:42;;;;;;;14.00;3.85;;;10.90;68.80;;;;;;1898430;75;21028;-46
2022/02/12 10:36:22;;;;;;;3.52;2.90;;;10.90;68.60;;;;;;1898650;75;21097;-46
2022/02/12 10:38:57;;;;;;;6.20;2.87;;;10.90;68.80;;;;;;1899697;75;21051;-46
2022/02/12 10:41:26;;;;;;;10.13;4.05;;;10.80;68.80;;;;;;1903355;75;21071;-46
2022/02/12 10:43:57;;;;;;;5.12;3.08;;;10.90;69.80;;;;;;1903325;75;21048;-45
2022/02/12 10:46:27;;;;;;;11.68;3.30;;;10.90;68.60;;;;;;1903329;75;21019;-46
2022/02/12 10:48:56;;;;;;;14.93;3.98;;;10.90;68.60;;;;;;1903367;75;21007;-45
2022/02/12 10:51:25;;;;;;;7.00;3.00;;;10.90;68.90;;;;;;1903349;75;21085;-49
2022/02/12 10:54:05;;;;;;;14.25;3.75;;;11.00;68.10;;;;;;1903336;75;21015;-46
2022/02/12 10:56:51;;;;;;;8.05;4.05;;;11.00;68.50;;;;;;1901419;75;21004;-48
2022/02/12 10:59:22;;;;;;;5.40;3.58;;;11.00;68.40;;;;;;1903438;75;21089;-46
2022/02/12 11:01:53;;;;;;;10.23;4.70;;;11.00;69.10;;;;;;1903359;75;21023;-46
2022/02/12 11:04:24;;;;;;;7.17;3.30;;;11.00;68.50;;;;;;1903391;75;21030;-46
2022/02/12 11:06:53;;;;;;;8.20;3.72;;;10.90;68.40;;;;;;1903283;75;21089;-46
2022/02/12 11:09:23;;;;;;;8.55;4.00;;;10.80;68.60;;;;;;1903461;75;21007;-50
2022/02/12 11:11:54;;;;;;;8.60;3.83;;;10.80;68.60;;;;;;1903381;75;21031;-46
2022/02/12 11:14:23;;;;;;;13.00;4.92;;;10.80;69.30;;;;;;1903498;75;21027;-46
2022/02/12 11:16:53;;;;;;;8.73;4.97;;;10.80;69.00;;;;;;1903427;75;21026;-48
2022/02/12 11:19:24;;;;;;;6.35;3.83;;;10.80;68.90;;;;;;1903331;75;21031;-46
2022/02/12 11:21:55;;;;;;;10.40;3.10;;;10.70;69.10;;;;;;1903363;75;21023;-46
2022/02/12 11:24:44;;;;;;;7.05;3.77;;;10.80;68.70;;;;;;1903489;75;21096;-47
2022/02/12 11:27:19;;;;;;;5.85;3.50;;;10.80;68.60;;;;;;1903356;75;21030;-47
2022/02/12 11:29:50;;;;;;;4.60;3.55;;;10.70;68.70;;;;;;1903346;75;21070;-46
2022/02/12 11:32:27;;;;;;;4.05;2.80;;;10.70;68.90;;;;;;1903375;75;21486;-46
2022/02/12 11:35:11;;;;;;;11.57;3.37;;;10.70;67.80;;;;;;1903376;75;21089;-45
2022/02/12 11:37:44;;;;;;;7.25;2.85;;;10.70;67.70;;;;;;1903412;75;21066;-47
2022/02/12 11:40:20;;;;;;;7.33;4.12;;;10.60;68.00;;;;;;1903327;75;21128;-47
2022/02/12 11:43:06;;;;;;;11.78;3.75;;;10.60;68.60;;;;;;1903410;75;21062;-46
2022/02/12 11:45:37;;;;;;;6.42;3.50;;;10.60;68.80;;;;;;1903498;75;21027;-49
2022/02/12 11:48:17;;;;;;;5.17;3.22;;;10.70;68.90;;;;;;1903298;75;21089;-47
2022/02/12 11:50:49;;;;;;;12.05;4.58;;;10.70;68.10;;;;;;1903311;75;21051;-48
2022/02/12 11:53:36;;;;;;;8.40;3.42;;;10.70;68.00;;;;;;1903056;75;21100;-46
2022/02/12 11:56:10;;;;;;;5.45;3.47;;;10.70;67.30;;;;;;1903347;75;21027;-46
2022/02/12 11:58:48;;;;;;;6.35;3.40;;;10.70;66.80;;;;;;1903607;75;21104;-46
2022/02/12 12:01:32;;;;;;;6.30;3.83;;;10.70;67.20;;;;;;1903469;75;21062;-46
2022/02/12 12:04:14;;;;;;;7.28;3.40;;;10.70;67.00;;;;;;1903477;75;21003;-46
2022/02/12 12:07:05;;;;;;;5.53;3.30;;;10.70;67.10;;;;;;1903402;75;21043;-46
2022/02/12 12:09:36;;;;;;;10.58;3.98;;;10.70;66.50;;;;;;1903364;75;21042;-46
2022/02/12 12:12:22;;;;;;;3.85;2.62;;;10.80;67.00;;;;;;1903167;75;21027;-47
2022/02/12 12:14:54;;;;;;;7.58;3.75;;;10.80;66.30;;;;;;1903565;75;21055;-49
2022/02/12 12:17:28;;;;;;;7.05;3.60;;;10.80;65.50;;;;;;1897616;75;21523;-46
2022/02/12 12:19:57;;;;;;;4.78;3.00;;;10.80;65.60;;;;;;1903462;75;21019;-46
2022/02/12 12:22:26;;;;;;;6.87;3.05;;;10.80;65.50;;;;;;1903416;75;21093;-46
2022/02/12 12:24:59;;;;;;;8.15;3.62;;;10.80;64.30;;;;;;1903509;75;21089;-47
2022/02/12 12:27:30;;;;;;;8.28;3.47;;;10.80;64.40;;;;;;1903423;75;21132;-46
2022/02/12 12:32:58;;;;;;;3.58;3.00;;;10.80;63.80;;;;;;1903446;75;21031;-48
2022/02/12 12:35:28;;;;;;;6.75;3.20;;;10.70;63.10;;;;;;1903474;75;21101;-46
2022/02/12 12:37:59;;;;;;;6.92;4.70;;;10.70;64.70;;;;;;1903575;75;21035;-46
2022/02/12 12:40:33;;;;;;;6.40;3.42;;;10.70;65.40;;;;;;1903424;75;21094;-47
2022/02/12 12:43:06;;;;;;;4.65;3.72;;;10.70;65.30;;;;;;1903645;75;21051;-48
2022/02/12 12:45:40;;;;;;;7.70;3.80;;;10.80;65.70;;;;;;1903260;75;21067;-49
2022/02/12 12:48:09;;;;;;;4.37;3.50;;;10.80;65.20;;;;;;1903483;75;21086;-46
2022/02/12 12:50:40;;;;;;;7.60;4.35;;;10.80;65.30;;;;;;1903423;75;21136;-49
2022/02/12 12:53:12;;;;;;;4.50;2.85;;;10.80;65.60;;;;;;1903364;75;21031;-47
2022/02/12 12:55:46;;;;;;;7.87;3.00;;;10.80;64.70;;;;;;1903470;75;21003;-46
2022/02/12 12:58:17;;;;;;;6.28;3.58;;;10.80;64.90;;;;;;1903429;75;21023;-47
2022/02/12 13:00:46;;;;;;;6.22;3.95;;;10.70;64.50;;;;;;1903461;75;21121;-47
2022/02/12 13:03:16;;;;;;;4.65;2.77;;;10.60;64.10;;;;;;1903402;75;21027;-47
2022/02/12 13:05:45;;;;;;;3.65;2.85;;;10.60;63.90;;;;;;1903561;75;21093;-47
2022/02/12 13:08:16;;;;;;;7.25;3.92;;;10.50;63.80;;;;;;1903516;75;21047;-46
2022/02/12 13:10:45;;;;;;;4.97;3.33;;;10.50;64.40;;;;;;1903623;75;21496;-46
2022/02/12 13:13:20;;;;;;;6.15;3.55;;;10.50;64.60;;;;;;1903567;75;21019;-46
2022/02/12 13:15:49;;;;;;;4.72;3.95;;;10.50;65.20;;;;;;1903692;75;21035;-48
2022/02/12 13:18:19;;;;;;;12.98;5.17;;;10.50;65.40;;;;;;1903707;75;21544;-47
2022/02/12 13:20:49;;;;;;;8.23;4.62;;;10.40;65.50;;;;;;1903587;75;21026;-46